Glenn, CA (95943)

1:04 AM PDT on September 17, 2014 (GMT -0700)
CINQUINI ORCHARDS | Change Station
CLOSE
Current Station
Personal Weather Station
Location: WEST SIDE OF CHICO, CA
Elevation: 151 ft
Nearby Weather Stations

Elev 151 ft 39.68 °N, 121.86 °W | Updated 19 seconds ago

Partly Cloudy
Partly Cloudy
63.5 °F
Feels Like 63.5 °F
N
3.1
Wind Variable Wind from NE
Gusts 3.1 mph

Today
High -- | Low -- °F
--% Chance of Precip.
Yesterday
High -- | Low -- °F
Precip. -- in
6:51 AM 7:13 PM
Last Quarter, 38% visible
Pressure 29.78 in
Visibility 10.0 miles
Clouds Clear
Dew Point 43 °F
Humidity 47%
Rainfall 0.00 in
Snow Depth Not available.
UV 0 out of 12
Pollen 6.80 out of 12
Ozone Good
Flu Activity Not available.
METAR KCIC 170755Z AUTO 13003KT 10SM CLR 23/04 A2978 RMK AO1

More Conditions Fewer Conditions

Pressure 29.78 in
Visibility 10.0 miles
Clouds Clear
Dew Point 43 °F
Humidity 47%
Rainfall 0.00 in
Snow Depth Not available.
UV 0 out of 12
Pollen 6.80 out of 12
Ozone Good
Flu Activity Not available.
METAR KCIC 170755Z AUTO 13003KT 10SM CLR 23/04 A2978 RMK AO1

More Conditions Fewer Conditions

10-Day Weather Forecast

Almanac

Astronomy

Sep. 17, 2014 Rise Set
Actual Time 6:51 AM PDT 7:13 PM PDT
Civil Twilight 6:24 AM PDT 7:40 PM PDT
Nautical Twilight 5:52 AM PDT 8:11 PM PDT
Astronomical Twilight 5:20 AM PDT 8:44 PM PDT
Moon 12:56 AM PDT 3:26 PM PDT
Length of Visible Light 13h 15m
Length of Day
12h 22m
Tomorrow will be 2m 34s shorter.
Last Quarter, 38% of the Moon is Illuminated
Today
Last Quarter
Sep 24
New
Oct 1
First Quarter
Oct 8
Full
Oct 15
Last Quarter

Today's Extremes

State Highs State Lows

Community

WunderPhotos

Upload Photos

1,753,976 photos uploaded!

Nearby

Air Quality

  Air Quality AQ Index Pollutant
Yesterday Good
OZONE
Current Good
OZONE

Snow Depth

Station Depth Elevation
Tahoe City Cross 0 in 6750 ft
Echo Peak 0 in 7800 ft
Forestdale Creek 0 in 8029 ft
Leavitt Lake 0 in 9400 ft
Summit Meadow 1 in 9122 ft

Earthquake Activity

City Distance Mag. Time & Date
Cobb, California 66 miles 2.7 1:23 PM PDT
2014-09-16
Covelo, California 58 miles 3.3 1:17 PM PDT
2014-09-14
Cobb, California 66 miles 2.7 11:07 AM PDT
2014-09-14
Minimum magnitude displayed is 2.5.

Coastal Water Temperatures

Place Temperature
No Stations Reporting

Nearby Weather Stations